Time;durP1;ratioP1;P1;durP2;ratioP2;P2;SDS_P1;SDS_P2;PMS_P1;PMS_P2;Temp;Humidity;BMP_temperature;BMP_pressure;BME280_temperature;BME280_humidity;BME280_pressure;Samples;Min_cycle;Max_cycle;Signal;HPM_P1;HPM_P2
2023/12/30 00:01:55;;;;;;;76.03;41.35;;;;;;;3.32;100.00;100339.50;5113035;28;20469;-44
2023/12/30 00:04:23;;;;;;;79.78;44.10;;;;;;;3.32;100.00;100338.63;5111970;28;20065;-42
2023/12/30 00:06:52;;;;;;;79.95;43.28;;;;;;;3.21;100.00;100333.66;5113248;28;20047;-45
2023/12/30 00:09:20;;;;;;;76.95;41.90;;;;;;;3.40;100.00;100332.22;5113280;28;20116;-44
2023/12/30 00:11:50;;;;;;;85.00;45.53;;;;;;;3.42;100.00;100333.03;5105062;28;20047;-43
2023/12/30 00:14:18;;;;;;;85.45;45.33;;;;;;;3.63;100.00;100338.56;5092505;28;20048;-44
2023/12/30 00:16:48;;;;;;;91.63;46.78;;;;;;;3.69;100.00;100338.41;5092211;28;20555;-44
2023/12/30 00:19:16;;;;;;;92.15;48.88;;;;;;;3.73;100.00;100338.25;5092254;28;20385;-43
2023/12/30 00:21:45;;;;;;;97.70;50.15;;;;;;;3.74;100.00;100339.97;5092600;28;20047;-42
2023/12/30 00:24:13;;;;;;;109.32;55.35;;;;;;;3.62;100.00;100334.22;5092287;28;20136;-44
2023/12/30 00:26:51;;;;;;;103.38;54.15;;;;;;;3.75;100.00;100340.81;5129631;27;20391;-43
2023/12/30 00:29:19;;;;;;;105.22;54.55;;;;;;;3.83;100.00;100338.81;5109935;28;20051;-43
2023/12/30 00:31:48;;;;;;;100.55;54.13;;;;;;;3.86;100.00;100346.66;5109388;28;20434;-45
2023/12/30 00:34:16;;;;;;;92.38;49.83;;;;;;;3.98;100.00;100341.00;5109565;28;20079;-43
2023/12/30 00:36:45;;;;;;;87.75;47.92;;;;;;;4.06;100.00;100339.88;5109468;28;20054;-45
2023/12/30 00:39:17;;;;;;;83.13;47.05;;;;;;;4.09;100.00;100351.19;5109199;28;20119;-45
2023/12/30 00:41:45;;;;;;;81.80;45.33;;;;;;;4.02;100.00;100347.03;5109498;28;20131;-44
2023/12/30 00:44:14;;;;;;;83.88;44.67;;;;;;;3.89;100.00;100345.69;5104975;28;20040;-44
2023/12/30 00:46:43;;;;;;;84.88;46.00;;;;;;;3.63;100.00;100349.13;5105128;28;20059;-43
2023/12/30 00:49:15;;;;;;;90.47;45.55;;;;;;;3.38;100.00;100336.69;5107288;28;20381;-44
2023/12/30 00:51:43;;;;;;;98.93;46.33;;;;;;;3.59;100.00;100336.94;5108134;28;20688;-43
2023/12/30 00:54:12;;;;;;;97.05;46.55;;;;;;;3.83;100.00;100336.19;5108860;28;20127;-43
2023/12/30 00:56:40;;;;;;;95.97;46.78;;;;;;;3.99;100.00;100342.72;5108678;28;20052;-43
2023/12/30 00:59:09;;;;;;;108.95;47.50;;;;;;;4.03;100.00;100339.06;5109089;28;20040;-45
2023/12/30 01:01:39;;;;;;;113.30;48.05;;;;;;;4.09;100.00;100331.88;5108899;28;20044;-43
2023/12/30 01:04:07;;;;;;;95.40;45.95;;;;;;;4.13;100.00;100334.34;5108883;28;20044;-44
2023/12/30 01:06:36;;;;;;;99.18;47.63;;;;;;;4.26;100.00;100337.47;5108741;28;20189;-44
2023/12/30 01:09:05;;;;;;;109.88;47.08;;;;;;;4.27;100.00;100332.13;5108454;28;20047;-44
2023/12/30 01:11:34;;;;;;;116.35;49.65;;;;;;;4.12;100.00;100337.91;5109031;28;20071;-43
2023/12/30 01:14:02;;;;;;;112.10;50.15;;;;;;;4.03;100.00;100335.56;5108681;28;20043;-44
2023/12/30 01:16:34;;;;;;;131.98;49.50;;;;;;;3.82;100.00;100345.00;5108825;28;20407;-43
2023/12/30 01:19:04;;;;;;;105.82;48.83;;;;;;;3.81;100.00;100348.56;5108306;28;20066;-43
2023/12/30 01:21:32;;;;;;;114.25;50.80;;;;;;;3.98;100.00;100343.63;5108364;28;20048;-44
2023/12/30 01:24:01;;;;;;;121.82;50.88;;;;;;;4.02;100.00;100353.16;5108041;28;20083;-43
2023/12/30 01:26:29;;;;;;;112.25;51.80;;;;;;;4.11;100.00;100351.16;5107737;28;20052;-43
2023/12/30 01:28:58;;;;;;;135.07;52.72;;;;;;;4.11;100.00;100345.88;5108333;28;20043;-44
2023/12/30 01:31:26;;;;;;;124.85;50.88;;;;;;;4.05;100.00;100346.06;5108141;28;20485;-44
2023/12/30 01:33:54;;;;;;;107.30;51.15;;;;;;;4.03;100.00;100344.31;5108192;28;20043;-42
2023/12/30 01:36:24;;;;;;;112.10;53.47;;;;;;;4.14;100.00;100343.13;5104558;28;20122;-44
2023/12/30 01:38:52;;;;;;;114.97;49.22;;;;;;;4.08;100.00;100338.91;5094608;28;20043;-43
2023/12/30 01:41:21;;;;;;;102.35;49.88;;;;;;;3.92;100.00;100337.66;5094592;28;20078;-45
2023/12/30 01:43:49;;;;;;;104.50;51.88;;;;;;;3.90;100.00;100336.88;5094239;28;20070;-43
2023/12/30 01:46:18;;;;;;;119.88;50.90;;;;;;;3.89;100.00;100335.13;5093890;28;20412;-42
2023/12/30 01:48:46;;;;;;;124.13;50.25;;;;;;;3.64;100.00;100330.59;5094010;28;20080;-43
2023/12/30 01:51:15;;;;;;;118.10;51.15;;;;;;;3.40;100.00;100332.22;5093792;28;20052;-43
2023/12/30 01:53:58;;;;;;;141.07;51.78;;;;;;;3.57;100.00;100328.19;5093966;28;20077;-43
2023/12/30 01:56:28;;;;;;;129.43;50.53;;;;;;;3.59;100.00;100331.69;5094023;28;20066;-44
2023/12/30 01:58:57;;;;;;;105.50;50.35;;;;;;;3.82;100.00;100328.31;5093268;28;20048;-44
2023/12/30 02:01:28;;;;;;;100.70;49.20;;;;;;;3.88;100.00;100323.72;5093334;28;20055;-43
2023/12/30 02:03:57;;;;;;;96.53;48.28;;;;;;;4.01;100.00;100324.19;5093587;28;20044;-43
2023/12/30 02:06:25;;;;;;;115.75;47.90;;;;;;;3.88;100.00;100326.38;5093538;28;20048;-42
2023/12/30 02:08:55;;;;;;;94.40;47.05;;;;;;;3.70;100.00;100316.38;5093561;28;20040;-44
2023/12/30 02:11:24;;;;;;;105.28;46.92;;;;;;;3.54;100.00;100328.31;5093491;28;20048;-42
2023/12/30 02:13:53;;;;;;;93.53;47.38;;;;;;;3.61;100.00;100324.56;5093392;28;20044;-44
2023/12/30 02:16:21;;;;;;;95.78;46.95;;;;;;;3.72;100.00;100323.31;5093268;28;20128;-45
2023/12/30 02:18:50;;;;;;;98.90;47.10;;;;;;;3.65;100.00;100319.13;5093286;28;20109;-43
2023/12/30 02:21:19;;;;;;;109.57;45.85;;;;;;;3.70;100.00;100317.25;5093235;28;20040;-42
2023/12/30 02:23:53;;;;;;;87.10;45.72;;;;;;;3.48;100.00;100313.53;5093226;28;20040;-44
2023/12/30 02:26:23;;;;;;;95.53;45.50;;;;;;;3.63;100.00;100306.91;5092991;28;20052;-43
2023/12/30 02:28:51;;;;;;;116.40;47.75;;;;;;;3.42;100.00;100314.56;5094368;28;20067;-43
2023/12/30 02:31:19;;;;;;;90.15;46.75;;;;;;;3.59;100.00;100305.31;5093777;28;20048;-44
2023/12/30 02:33:48;;;;;;;87.15;45.35;;;;;;;3.67;100.00;100313.84;5092944;28;20064;-42
2023/12/30 02:36:16;;;;;;;97.20;45.00;;;;;;;3.73;100.00;100309.22;5093117;28;20130;-43
2023/12/30 02:38:45;;;;;;;102.43;45.00;;;;;;;3.39;100.00;100309.41;5092594;28;20040;-42
2023/12/30 02:41:15;;;;;;;113.78;46.22;;;;;;;3.55;100.00;100320.34;5092868;28;20040;-42
2023/12/30 02:43:54;;;;;;;84.03;44.78;;;;;;;3.64;100.00;100312.13;5092452;28;20043;-43
2023/12/30 02:46:22;;;;;;;122.47;47.08;;;;;;;3.35;100.00;100314.81;5092563;28;20093;-45
2023/12/30 02:48:51;;;;;;;128.73;46.17;;;;;;;3.23;100.00;100308.13;5090047;28;20043;-43
2023/12/30 02:51:19;;;;;;;87.57;45.92;;;;;;;3.62;100.00;100318.38;5087707;28;20051;-45
2023/12/30 02:53:48;;;;;;;86.57;45.30;;;;;;;3.68;100.00;100320.84;5089119;28;20150;-42
2023/12/30 02:56:22;;;;;;;88.18;46.33;;;;;;;3.55;100.00;100319.47;5093082;28;20131;-43
2023/12/30 02:58:55;;;;;;;93.18;45.92;;;;;;;3.67;100.00;100308.56;5092984;28;20044;-45
2023/12/30 03:01:24;;;;;;;;;;;;;;;3.73;100.00;100313.63;5093238;28;20526;-43
2023/12/30 03:03:54;;;;;;;100.97;47.53;;;;;;;3.87;100.00;100306.16;5092044;28;20376;-43
2023/12/30 03:06:23;;;;;;;89.38;46.70;;;;;;;3.97;100.00;100306.72;5092129;28;20054;-44
2023/12/30 03:08:52;;;;;;;98.13;45.55;;;;;;;3.64;100.00;100311.28;5092582;28;20040;-41
2023/12/30 03:11:23;;;;;;;85.63;42.15;;;;;;;3.45;100.00;100308.34;5092657;28;20120;-42
2023/12/30 03:13:51;;;;;;;80.45;40.72;;;;;;;3.62;100.00;100311.34;5092457;28;20452;-43
2023/12/30 03:16:20;;;;;;;73.60;40.63;;;;;;;3.67;100.00;100312.06;5092371;28;20044;-44
2023/12/30 03:18:48;;;;;;;74.90;38.88;;;;;;;3.66;100.00;100304.19;5092397;28;20051;-41
2023/12/30 03:21:18;;;;;;;69.50;37.53;;;;;;;3.66;100.00;100305.03;5092400;28;20131;-43
2023/12/30 03:23:47;;;;;;;65.25;36.67;;;;;;;3.73;100.00;100308.34;5092038;28;20048;-43
2023/12/30 03:26:15;;;;;;;64.38;36.90;;;;;;;3.51;100.00;100312.56;5091970;28;20048;-41
2023/12/30 03:28:45;;;;;;;72.57;38.00;;;;;;;3.55;100.00;100303.66;5092030;28;20097;-44
2023/12/30 03:31:23;;;;;;;74.90;37.33;;;;;;;2.93;100.00;100309.00;5092511;28;20055;-43
2023/12/30 03:33:52;;;;;;;62.75;34.47;;;;;;;2.93;100.00;100298.47;5091802;28;20048;-43
2023/12/30 03:36:21;;;;;;;63.70;35.85;;;;;;;3.21;100.00;100302.03;5091816;28;20504;-42
2023/12/30 03:38:52;;;;;;;70.57;37.25;;;;;;;3.05;100.00;100298.97;5091620;28;20052;-42
2023/12/30 03:41:21;;;;;;;90.55;35.40;;;;;;;2.61;100.00;100294.94;5091399;28;20412;-42
2023/12/30 03:43:51;;;;;;;76.95;35.67;;;;;;;2.55;100.00;100293.34;5091513;28;20509;-43
2023/12/30 03:46:19;;;;;;;84.25;37.65;;;;;;;2.51;100.00;100303.97;5091431;28;20056;-42
2023/12/30 03:48:48;;;;;;;67.10;36.97;;;;;;;2.90;100.00;100303.81;5091533;28;20040;-42
2023/12/30 03:51:17;;;;;;;72.97;38.03;;;;;;;2.94;100.00;100308.09;5091453;28;20059;-44
2023/12/30 03:53:45;;;;;;;61.88;35.35;;;;;;;2.96;100.00;100314.19;5091863;28;20091;-43
2023/12/30 03:56:13;;;;;;;65.60;36.30;;;;;;;3.07;100.00;100312.97;5091771;28;20048;-43
2023/12/30 03:58:42;;;;;;;72.68;36.42;;;;;;;3.06;100.00;100299.81;5091820;28;20052;-43
2023/12/30 04:01:14;;;;;;;63.85;34.15;;;;;;;3.01;100.00;100309.66;5091548;28;20127;-42
2023/12/30 04:03:43;;;;;;;67.88;34.65;;;;;;;2.80;100.00;100292.69;5091549;28;20097;-45
2023/12/30 04:06:17;;;;;;;70.95;34.38;;;;;;;2.62;100.00;100298.44;5091564;28;20070;-42
2023/12/30 04:08:45;;;;;;;62.40;35.95;;;;;;;2.63;100.00;100302.81;5091218;28;20412;-44
2023/12/30 04:11:13;;;;;;;71.32;35.83;;;;;;;2.73;100.00;100297.25;5091115;28;20481;-42
2023/12/30 04:13:42;;;;;;;68.90;36.55;;;;;;;2.80;100.00;100304.09;5091475;28;20108;-44
2023/12/30 04:16:10;;;;;;;70.90;36.47;;;;;;;2.86;100.00;100309.16;5091066;28;20051;-43
2023/12/30 04:18:40;;;;;;;66.90;34.13;;;;;;;2.74;100.00;100306.88;5091227;28;20051;-43
2023/12/30 04:21:09;;;;;;;69.80;35.15;;;;;;;2.57;100.00;100312.59;5091332;28;20048;-43
2023/12/30 04:23:37;;;;;;;67.88;34.13;;;;;;;2.67;100.00;100315.84;5091071;28;20445;-43
2023/12/30 04:26:05;;;;;;;61.78;34.05;;;;;;;2.87;100.00;100310.88;5091050;28;20463;-43
2023/12/30 04:28:34;;;;;;;74.70;34.15;;;;;;;2.79;100.00;100312.84;5091089;28;20101;-44
2023/12/30 04:31:02;;;;;;;64.13;34.53;;;;;;;3.02;100.00;100298.19;5091198;28;20173;-42
2023/12/30 04:33:31;;;;;;;62.40;31.83;;;;;;;2.96;100.00;100308.91;5091042;28;20451;-44
2023/12/30 04:36:01;;;;;;;66.63;33.20;;;;;;;2.83;100.00;100306.63;5091040;28;20052;-43
2023/12/30 04:38:29;;;;;;;63.20;32.42;;;;;;;2.69;100.00;100308.75;5090916;28;20370;-43
2023/12/30 04:40:57;;;;;;;65.93;33.22;;;;;;;2.75;100.00;100315.63;5091151;28;20055;-43
2023/12/30 04:43:24;;;;;;;66.20;32.90;;;;;;;2.81;100.00;100299.69;5091153;28;20048;-42
2023/12/30 04:45:53;;;;;;;54.25;32.53;;;;;;;2.95;100.00;100301.91;5091199;28;20051;-41
2023/12/30 04:48:21;;;;;;;52.58;32.22;;;;;;;3.08;100.00;100319.09;5091140;28;20145;-44
2023/12/30 04:50:50;;;;;;;62.22;32.65;;;;;;;2.81;100.00;100311.06;5090969;28;20481;-44
2023/12/30 04:53:20;;;;;;;53.33;30.95;;;;;;;3.02;100.00;100316.66;5090958;28;20052;-42
2023/12/30 04:55:48;;;;;;;56.72;31.70;;;;;;;3.14;100.00;100324.19;5091126;28;20048;-43
2023/12/30 04:58:17;;;;;;;57.80;31.35;;;;;;;3.00;100.00;100310.56;5090712;28;20044;-43
2023/12/30 05:00:46;;;;;;;53.83;31.85;;;;;;;3.03;100.00;100316.59;5090884;28;20079;-45
2023/12/30 05:03:15;;;;;;;64.03;32.80;;;;;;;2.93;100.00;100317.78;5090733;28;20040;-44
2023/12/30 05:05:44;;;;;;;55.47;30.42;;;;;;;3.07;100.00;100317.38;5090826;28;20174;-43
2023/12/30 05:08:13;;;;;;;54.00;31.80;;;;;;;3.21;100.00;100331.03;5090991;28;20472;-44
2023/12/30 05:10:42;;;;;;;51.10;31.00;;;;;;;3.07;100.00;100318.22;5091097;28;20147;-43
2023/12/30 05:13:11;;;;;;;52.75;31.42;;;;;;;3.03;100.00;100335.06;5093848;28;20051;-42
2023/12/30 05:15:39;;;;;;;60.38;31.52;;;;;;;3.01;100.00;100333.38;5094582;28;20044;-43
2023/12/30 05:18:07;;;;;;;59.63;31.52;;;;;;;2.80;100.00;100335.69;5094574;28;20051;-44
2023/12/30 05:20:36;;;;;;;60.58;32.08;;;;;;;2.90;100.00;100340.72;5094485;28;20083;-43
2023/12/30 05:23:04;;;;;;;56.08;32.92;;;;;;;2.94;100.00;100347.63;5093313;28;20090;-43
2023/12/30 05:25:33;;;;;;;65.55;32.80;;;;;;;2.57;100.00;100338.91;5094326;28;20048;-44
2023/12/30 05:28:03;;;;;;;54.22;32.00;;;;;;;2.85;100.00;100339.03;5094409;28;20079;-43
2023/12/30 05:30:31;;;;;;;55.20;31.77;;;;;;;2.74;100.00;100346.38;5094036;28;20071;-42
2023/12/30 05:32:59;;;;;;;53.72;31.05;;;;;;;2.73;100.00;100354.34;5094181;28;20061;-45
2023/12/30 05:35:28;;;;;;;58.17;33.25;;;;;;;2.50;100.00;100352.28;5094325;28;20052;-42
2023/12/30 05:37:56;;;;;;;55.88;31.58;;;;;;;2.50;100.00;100347.00;5094281;28;20052;-44
2023/12/30 05:40:25;;;;;;;55.92;32.80;;;;;;;2.76;100.00;100346.34;5093974;28;20131;-44
2023/12/30 05:42:53;;;;;;;57.80;33.08;;;;;;;2.62;100.00;100349.34;5094042;28;20044;-45
2023/12/30 05:45:23;;;;;;;57.67;33.10;;;;;;;2.41;100.00;100337.56;5093704;28;20044;-43
2023/12/30 05:47:51;;;;;;;57.70;33.20;;;;;;;2.40;100.00;100353.41;5093819;28;20540;-43
2023/12/30 05:50:20;;;;;;;62.08;33.78;;;;;;;2.33;100.00;100349.22;5094162;28;20054;-44
2023/12/30 05:52:49;;;;;;;53.35;31.92;;;;;;;2.59;100.00;100362.56;5093728;28;20076;-44
2023/12/30 05:55:17;;;;;;;55.40;32.80;;;;;;;2.64;100.00;100362.47;5093928;28;20394;-43
2023/12/30 05:57:46;;;;;;;51.05;31.90;;;;;;;2.81;100.00;100363.75;5093624;28;20109;-45
2023/12/30 06:00:16;;;;;;;52.00;31.98;;;;;;;2.52;100.00;100366.28;5093898;28;20067;-44
2023/12/30 06:02:48;;;;;;;50.72;31.02;;;;;;;2.49;100.00;100377.75;5093696;28;20051;-43
2023/12/30 06:05:16;;;;;;;53.42;31.17;;;;;;;2.70;100.00;100379.00;5093448;28;20062;-45
2023/12/30 06:07:44;;;;;;;50.33;30.73;;;;;;;2.81;100.00;100379.56;5093637;28;20131;-43
2023/12/30 06:10:13;;;;;;;52.60;30.73;;;;;;;2.86;100.00;100393.47;5093475;28;20066;-44
2023/12/30 06:12:41;;;;;;;52.58;30.73;;;;;;;2.70;100.00;100380.72;5093242;28;20052;-45
2023/12/30 06:15:10;;;;;;;51.97;30.52;;;;;;;2.74;100.00;100390.28;5093501;28;20130;-44
2023/12/30 06:17:38;;;;;;;50.17;30.60;;;;;;;2.79;100.00;100377.84;5093629;28;20052;-43
2023/12/30 06:20:10;;;;;;;49.65;31.15;;;;;;;2.88;100.00;100390.78;5093358;28;20117;-45
2023/12/30 06:22:39;;;;;;;50.60;30.38;;;;;;;2.54;100.00;100396.06;5093431;28;20044;-43
2023/12/30 06:25:07;;;;;;;60.97;33.13;;;;;;;2.54;100.00;100378.50;5093427;28;20471;-43
2023/12/30 06:27:36;;;;;;;82.93;31.60;;;;;;;2.39;100.00;100402.56;5093667;28;20572;-43
2023/12/30 06:30:06;;;;;;;80.47;32.70;;;;;;;2.41;100.00;100413.06;5093454;28;20048;-42
2023/12/30 06:32:35;;;;;;;56.65;33.10;;;;;;;2.46;100.00;100395.41;5093114;28;20417;-43
2023/12/30 06:35:04;;;;;;;55.95;31.38;;;;;;;2.56;100.00;100404.78;5093002;28;20048;-44
2023/12/30 06:37:33;;;;;;;103.75;33.60;;;;;;;2.46;100.00;100404.16;5092556;28;20488;-42
2023/12/30 06:40:02;;;;;;;57.63;33.75;;;;;;;2.66;100.00;100401.03;5093069;28;20409;-43
2023/12/30 06:42:31;;;;;;;62.03;33.13;;;;;;;2.34;100.00;100404.47;5092594;28;20044;-43
2023/12/30 06:44:59;;;;;;;77.63;31.92;;;;;;;2.46;100.00;100408.56;5092608;28;20040;-43
2023/12/30 06:47:28;;;;;;;58.00;32.58;;;;;;;2.58;100.00;100410.88;5092912;28;20044;-45
2023/12/30 06:49:56;;;;;;;85.47;33.03;;;;;;;2.11;100.00;100423.41;5092662;28;20052;-44
2023/12/30 06:52:25;;;;;;;129.20;35.20;;;;;;;2.29;100.00;100422.97;5092986;28;20153;-47
2023/12/30 06:54:55;;;;;;;74.47;31.90;;;;;;;2.41;100.00;100426.22;5090053;28;21184;-43
2023/12/30 06:57:42;;;;;;;60.58;31.45;;;;;;;2.48;100.00;100438.34;5087883;28;20050;-44
2023/12/30 07:00:12;;;;;;;54.47;32.75;;;;;;;2.48;100.00;100439.22;5090104;28;20048;-42
2023/12/30 07:02:42;;;;;;;124.63;33.92;;;;;;;2.53;100.00;100444.38;5092348;28;20131;-43
2023/12/30 07:05:10;;;;;;;114.20;32.55;;;;;;;2.37;100.00;100450.91;5092248;28;20519;-43
2023/12/30 07:07:39;;;;;;;54.60;29.77;;;;;;;2.36;100.00;100449.19;5092479;28;20056;-43
2023/12/30 07:10:09;;;;;;;55.95;31.83;;;;;;;2.59;100.00;100454.75;5092416;28;20094;-42
2023/12/30 07:12:38;;;;;;;51.28;29.23;;;;;;;2.61;100.00;100460.88;5092241;28;20060;-43
2023/12/30 07:15:07;;;;;;;55.00;29.65;;;;;;;2.57;100.00;100464.47;5092149;28;20722;-42
2023/12/30 07:17:36;;;;;;;44.80;28.35;;;;;;;2.51;100.00;100467.22;5092003;28;20080;-42
2023/12/30 07:20:06;;;;;;;48.08;29.02;;;;;;;2.64;100.00;100459.91;5092165;28;20055;-42
2023/12/30 07:22:35;;;;;;;64.70;28.88;;;;;;;2.42;100.00;100459.56;5091457;28;20044;-42
2023/12/30 07:25:04;;;;;;;56.72;29.23;;;;;;;2.39;100.00;100459.63;5092144;28;20079;-42
2023/12/30 07:27:33;;;;;;;67.35;28.08;;;;;;;2.19;100.00;100468.84;5091944;28;20048;-46
2023/12/30 07:30:02;;;;;;;52.83;27.63;;;;;;;2.32;100.00;100479.97;5091562;28;20453;-43
2023/12/30 07:32:31;;;;;;;49.75;27.15;;;;;;;2.24;100.00;100468.75;5091413;28;20060;-43
2023/12/30 07:34:59;;;;;;;52.13;27.85;;;;;;;2.45;100.00;100470.88;5091203;28;20074;-43
2023/12/30 07:37:29;;;;;;;48.13;28.00;;;;;;;2.50;100.00;100479.53;5091710;28;20596;-44
2023/12/30 07:39:57;;;;;;;45.58;26.48;;;;;;;2.52;100.00;100480.38;5091586;28;20043;-42
2023/12/30 07:42:26;;;;;;;47.83;27.45;;;;;;;2.63;100.00;100477.50;5091364;28;20048;-42
2023/12/30 07:44:56;;;;;;;41.50;26.85;;;;;;;2.78;100.00;100479.72;5091742;28;20189;-43
2023/12/30 07:47:25;;;;;;;46.50;26.98;;;;;;;2.72;100.00;100477.28;5091274;28;20509;-43
2023/12/30 07:49:54;;;;;;;62.90;28.23;;;;;;;2.33;100.00;100497.50;5091509;28;20048;-43
2023/12/30 07:52:22;;;;;;;49.53;27.85;;;;;;;2.29;100.00;100491.41;5091645;28;20044;-44
2023/12/30 07:54:51;;;;;;;50.17;28.20;;;;;;;2.39;100.00;100496.47;5091481;28;20051;-51
2023/12/30 07:57:20;;;;;;;62.10;30.30;;;;;;;2.55;100.00;100493.47;5090880;28;20047;-45
2023/12/30 07:59:49;;;;;;;56.25;29.77;;;;;;;2.72;100.00;100494.84;5091588;28;20050;-43
2023/12/30 08:02:19;;;;;;;50.05;28.67;;;;;;;2.74;100.00;100499.16;5091677;28;20079;-43
2023/12/30 08:04:47;;;;;;;47.58;27.38;;;;;;;2.73;100.00;100507.97;5091447;28;20051;-43
2023/12/30 08:07:16;;;;;;;60.95;29.40;;;;;;;2.57;100.00;100494.28;5091395;28;20044;-43
2023/12/30 08:09:45;;;;;;;56.75;28.75;;;;;;;2.72;100.00;100503.59;5091236;28;20094;-43
2023/12/30 08:12:14;;;;;;;49.78;28.73;;;;;;;2.92;100.00;100507.53;5088245;28;20036;-43
2023/12/30 08:14:42;;;;;;;89.78;29.13;;;;;;;2.61;100.00;100503.00;5086334;28;20044;-44
2023/12/30 08:17:10;;;;;;;46.22;27.55;;;;;;;2.87;100.00;100505.84;5086542;28;20508;-43
2023/12/30 08:19:40;;;;;;;45.65;28.55;;;;;;;3.03;100.00;100505.47;5086364;28;20040;-42
2023/12/30 08:22:09;;;;;;;45.80;27.60;;;;;;;2.99;100.00;100503.81;5086268;28;20051;-43
2023/12/30 08:24:37;;;;;;;45.92;27.55;;;;;;;3.11;100.00;100507.03;5088469;28;20093;-42
2023/12/30 08:27:06;;;;;;;42.38;26.80;;;;;;;3.11;100.00;100507.03;5089571;28;20048;-42
2023/12/30 08:29:34;;;;;;;45.78;28.55;;;;;;;2.86;100.00;100511.16;5086312;28;20436;-42
2023/12/30 08:32:05;;;;;;;53.00;29.42;;;;;;;2.88;100.00;100517.25;5087103;28;20165;-43
2023/12/30 08:34:33;;;;;;;44.88;27.02;;;;;;;2.98;100.00;100508.22;5089385;28;20043;-43
2023/12/30 08:37:08;;;;;;;50.90;30.30;;;;;;;2.88;100.00;100509.34;5090018;28;20128;-44
2023/12/30 08:39:38;;;;;;;53.00;30.50;;;;;;;3.05;100.00;100514.22;5090625;28;20453;-43
2023/12/30 08:42:07;;;;;;;50.20;28.45;;;;;;;3.02;100.00;100520.44;5089267;28;20040;-42
2023/12/30 08:44:40;;;;;;;51.50;29.85;;;;;;;3.14;100.00;100519.25;5090522;28;20040;-44
2023/12/30 08:47:09;;;;;;;50.05;29.75;;;;;;;3.12;100.00;100523.69;5091822;28;20087;-43
2023/12/30 08:49:38;;;;;;;50.83;29.77;;;;;;;3.49;100.00;100530.66;5094088;28;20056;-43
2023/12/30 08:52:07;;;;;;;48.00;28.85;;;;;;;3.48;100.00;100536.84;5094549;28;20043;-42
2023/12/30 08:54:40;;;;;;;61.22;30.95;;;;;;;3.63;100.00;100533.78;5093518;28;20036;-41
2023/12/30 08:57:08;;;;;;;50.67;30.45;;;;;;;3.60;100.00;100533.88;5090863;28;20044;-43
2023/12/30 08:59:36;;;;;;;52.35;30.60;;;;;;;3.81;100.00;100542.97;5093171;28;20085;-45
2023/12/30 09:02:05;;;;;;;49.25;28.83;;;;;;;3.91;100.00;100544.44;5089058;28;20040;-43
2023/12/30 09:04:33;;;;;;;48.85;30.17;;;;;;;3.60;100.00;100540.00;5089927;28;20067;-44
2023/12/30 09:07:02;;;;;;;50.83;30.90;;;;;;;3.24;100.00;100539.19;5090220;28;20093;-41
2023/12/30 09:09:32;;;;;;;49.88;31.05;;;;;;;3.26;100.00;100534.75;5088555;28;20048;-43
2023/12/30 09:12:01;;;;;;;55.45;32.10;;;;;;;3.34;100.00;100534.56;5089264;28;20050;-43
2023/12/30 09:14:29;;;;;;;53.60;32.03;;;;;;;3.48;100.00;100531.56;5089865;28;20130;-43
2023/12/30 09:16:57;;;;;;;57.88;32.35;;;;;;;3.41;100.00;100525.59;5088845;28;20136;-41
2023/12/30 09:19:26;;;;;;;54.00;31.70;;;;;;;3.57;100.00;100528.66;5089119;28;20072;-44
2023/12/30 09:21:54;;;;;;;52.55;31.27;;;;;;;3.45;100.00;100532.50;5090318;28;20127;-44
2023/12/30 09:24:22;;;;;;;53.38;32.28;;;;;;;3.69;100.00;100538.91;5091200;28;20044;-43
2023/12/30 09:26:52;;;;;;;52.97;31.90;;;;;;;3.77;100.00;100530.78;5091600;28;20040;-43
2023/12/30 09:29:20;;;;;;;50.35;31.77;;;;;;;3.83;100.00;100526.16;5091033;28;20400;-44
2023/12/30 09:31:49;;;;;;;52.20;32.40;;;;;;;3.89;100.00;100535.69;5090484;28;20048;-42
2023/12/30 09:34:17;;;;;;;53.00;31.10;;;;;;;4.03;100.00;100513.25;5089982;28;20044;-42
2023/12/30 09:37:05;;;;;;;52.75;31.45;;;;;;;4.02;100.00;100522.09;5090551;28;20040;-43
2023/12/30 09:39:33;;;;;;;54.47;32.80;;;;;;;3.99;100.00;100511.63;5090495;28;20181;-42
2023/12/30 09:42:03;;;;;;;56.78;33.78;;;;;;;3.90;100.00;100509.25;5090344;28;20105;-42
2023/12/30 09:44:32;;;;;;;54.05;34.25;;;;;;;3.96;100.00;100519.66;5094062;28;20089;-43
2023/12/30 09:47:02;;;;;;;55.85;34.55;;;;;;;3.94;100.00;100516.16;5093294;28;20089;-43
2023/12/30 09:49:34;;;;;;;55.38;33.80;;;;;;;4.09;100.00;100516.66;5093937;28;20429;-45
2023/12/30 09:52:05;;;;;;;57.83;34.75;;;;;;;4.37;100.00;100516.69;5092976;28;20136;-42
2023/12/30 09:54:33;;;;;;;54.58;33.95;;;;;;;4.53;100.00;100523.22;5089408;28;20048;-43
2023/12/30 09:57:17;;;;;;;55.58;34.20;;;;;;;4.48;100.00;100522.50;5089316;28;20064;-43
2023/12/30 09:59:48;;;;;;;53.92;33.10;;;;;;;4.66;100.00;100534.28;5089403;28;20040;-43
2023/12/30 10:02:16;;;;;;;55.85;33.90;;;;;;;4.21;100.00;100540.03;5089785;28;20404;-43
2023/12/30 10:04:44;;;;;;;57.35;33.50;;;;;;;4.22;100.00;100531.22;5089244;28;20400;-44
2023/12/30 10:07:13;;;;;;;55.60;34.70;;;;;;;4.45;100.00;100519.97;5089762;28;20079;-43
2023/12/30 10:09:42;;;;;;;58.25;35.17;;;;;;;4.65;100.00;100506.13;5088114;28;20048;-42
2023/12/30 10:12:10;;;;;;;57.42;34.35;;;;;;;4.64;100.00;100514.97;5088326;28;20489;-43
2023/12/30 10:14:40;;;;;;;55.67;34.00;;;;;;;4.69;100.00;100503.34;5088994;28;20131;-43
2023/12/30 10:17:11;;;;;;;54.42;33.78;;;;;;;4.60;100.00;100504.50;5088350;28;20044;-42
2023/12/30 10:19:39;;;;;;;56.92;34.83;;;;;;;4.69;100.00;100500.69;5089473;28;20044;-42
2023/12/30 10:22:08;;;;;;;54.28;33.85;;;;;;;4.61;100.00;100508.00;5090254;28;20056;-43
2023/12/30 10:24:37;;;;;;;56.72;34.80;;;;;;;4.69;100.00;100499.81;5093062;28;20066;-44
2023/12/30 10:27:06;;;;;;;58.60;34.47;;;;;;;4.92;100.00;100494.63;5093157;28;20048;-43
2023/12/30 10:29:34;;;;;;;56.50;34.58;;;;;;;5.03;100.00;100481.09;5092597;28;20489;-42
2023/12/30 10:32:22;;;;;;;59.25;35.60;;;;;;;5.11;100.00;100477.25;5092861;28;20068;-42
2023/12/30 10:34:51;;;;;;;53.03;33.17;;;;;;;5.08;100.00;100493.22;5093124;28;20044;-43
2023/12/30 10:37:23;;;;;;;58.13;35.65;;;;;;;5.23;100.00;100480.41;5092515;28;20048;-42
2023/12/30 10:39:55;;;;;;;57.15;35.30;;;;;;;5.65;100.00;100488.59;5093267;28;20068;-42
2023/12/30 10:42:24;;;;;;;57.53;35.80;;;;;;;5.82;100.00;100482.69;5092352;28;20135;-43
2023/12/30 10:44:52;;;;;;;57.88;35.83;;;;;;;5.98;100.00;100487.41;5093589;28;20108;-45
2023/12/30 10:47:25;;;;;;;54.95;34.97;;;;;;;6.27;100.00;100478.34;5093294;28;20048;-42
2023/12/30 10:50:04;;;;;;;56.50;35.90;;;;;;;6.51;100.00;100475.66;5092658;28;20493;-43
2023/12/30 10:52:36;;;;;;;52.85;35.20;;;;;;;6.65;100.00;100462.69;5095448;28;20056;-49
2023/12/30 10:55:09;;;;;;;52.80;34.15;;;;;;;6.82;100.00;100467.31;5096156;28;20078;-44
2023/12/30 10:57:41;;;;;;;53.55;34.95;;;;;;;6.94;100.00;100464.13;5081230;28;20052;-43
2023/12/30 11:00:14;;;;;;;53.47;33.90;;;;;;;7.06;100.00;100455.69;5096368;28;20102;-43
2023/12/30 11:02:45;;;;;;;53.63;33.22;;;;;;;7.24;100.00;100464.66;5093608;28;20131;-43
2023/12/30 11:05:20;;;;;;;51.42;33.72;;;;;;;7.42;100.00;100447.91;5090918;28;20453;-42
2023/12/30 11:07:49;;;;;;;54.20;34.42;;;;;;;7.54;100.00;100453.63;5091101;28;20075;-44
2023/12/30 11:10:19;;;;;;;53.35;33.70;;;;;;;7.64;100.00;100446.97;5090131;28;20151;-42
2023/12/30 11:12:49;;;;;;;49.90;32.78;;;;;;;7.59;100.00;100438.34;5090679;28;20139;-44
2023/12/30 11:15:28;;;;;;;50.13;32.75;;;;;;;7.67;100.00;100442.38;5090617;28;20441;-43
2023/12/30 11:17:59;;;;;;;48.28;32.15;;;;;;;7.80;100.00;100452.44;5091873;28;20047;-41
2023/12/30 11:20:30;;;;;;;48.97;31.63;;;;;;;7.90;100.00;100448.44;5092723;28;20050;-44